• Join FlightAware (Why Join?)
  • Login
  • US Flag 
01:12PM EDT


 

Airport Tracker/Info


-or-


 

Live Flight TrackerFlight Track Log ✈ CCA1515 ✈ 10-May-2013 ✈ ZBAA / PEK - ZSSS / SHA

Flight Track Log - Related Links

Times and Time Zones

All times are in EDT time to prevent confusion due to time zone crossing. See the CCA1515 flight status page for this flight to view local times or setup timezone preferences in your user account.

Time Position Orientation Groundspeed Altitude Reporting Facility
EDT Latitude Longitude Course Direction KTS MPH feet Rate Location/Type
03:54AM 40.0970 116.6120 359° North 177 204 2,000  Level FlightAware
03:54AM 40.1160 116.6120 360° North 177 204 2,000 120 Level FlightAware
03:57AM 39.9181 116.7307 155° Southeast  Level Estimated
03:58AM 39.8350 116.7803 155° Southeast  Level Estimated
03:59AM 39.7519 116.8297 155° Southeast  Level Estimated
04:00AM 39.6688 116.8791 155° Southeast  Level Estimated
04:01AM 39.5856 116.9283 155° Southeast  Level Estimated
04:02AM 39.5025 116.9774 155° Southeast  Level Estimated
04:03AM 39.4193 117.0264 156° South  Level Estimated
04:04AM 39.3361 117.0753 156° South  Level Estimated
04:05AM 39.2528 117.1241 156° South  Level Estimated
04:06AM 39.1696 117.1727 156° South  Level Estimated
04:07AM 39.0863 117.2213 156° South  Level Estimated
04:08AM 39.0030 117.2697 156° South  Level Estimated
04:09AM 38.9197 117.3180 156° South  Level Estimated
04:10AM 38.8364 117.3662 156° South  Level Estimated
04:11AM 38.7530 117.4142 156° South  Level Estimated
04:12AM 38.6697 117.4622 156° South  Level Estimated
04:13AM 38.5863 117.5101 156° South  Level Estimated
04:14AM 38.5029 117.5578 156° South  Level Estimated
04:15AM 38.4194 117.6054 156° South  Level Estimated
04:16AM 38.3360 117.6530 156° South  Level Estimated
04:17AM 38.2525 117.7004 156° South  Level Estimated
04:18AM 38.1690 117.7477 156° South  Level Estimated
04:19AM 38.0855 117.7949 156° South  Level Estimated
04:20AM 38.0020 117.8420 156° South  Level Estimated
04:21AM 37.9185 117.8889 156° South  Level Estimated
04:22AM 37.8349 117.9358 156° South  Level Estimated
04:23AM 37.7514 117.9826 156° South  Level Estimated
04:24AM 37.6678 118.0293 156° South  Level Estimated
04:25AM 37.5841 118.0758 156° South  Level Estimated
04:26AM 37.5005 118.1223 156° South  Level Estimated
04:27AM 37.4169 118.1686 156° South  Level Estimated
04:28AM 37.3332 118.2149 156° South  Level Estimated
04:29AM 37.2495 118.2610 156° South  Level Estimated
04:30AM 37.1658 118.3071 156° South  Level Estimated
04:31AM 37.0821 118.3530 156° South  Level Estimated
04:32AM 36.9983 118.3988 156° South  Level Estimated
04:33AM 36.9146 118.4446 156° South  Level Estimated
04:34AM 36.8308 118.4902 156° South  Level Estimated
04:35AM 36.7470 118.5358 156° South  Level Estimated
04:36AM 36.6632 118.5812 156° South  Level Estimated
04:37AM 36.5794 118.6265 157° South  Level Estimated
04:38AM 36.4955 118.6718 157° South  Level Estimated
04:39AM 36.4117 118.7169 157° South  Level Estimated
04:40AM 36.3278 118.7620 157° South  Level Estimated
04:41AM 36.2439 118.8069 157° South  Level Estimated
04:42AM 36.1600 118.8518 157° South  Level Estimated
04:43AM 36.0761 118.8965 157° South  Level Estimated
04:44AM 35.9921 118.9412 157° South  Level Estimated
04:45AM 35.9082 118.9857 157° South  Level Estimated
04:46AM 35.8242 119.0302 157° South  Level Estimated
04:47AM 35.7402 119.0746 157° South  Level Estimated
04:48AM 35.6562 119.1189 157° South  Level Estimated
04:49AM 35.5722 119.1631 157° South  Level Estimated
04:50AM 35.4881 119.2072 157° South  Level Estimated
04:51AM 35.4041 119.2512 157° South  Level Estimated
04:52AM 35.3200 119.2951 157° South  Level Estimated
04:53AM 35.2359 119.3389 157° South  Level Estimated
04:54AM 35.1518 119.3826 157° South  Level Estimated
04:55AM 35.0677 119.4263 157° South  Level Estimated
04:56AM 34.9835 119.4698 157° South  Level Estimated
04:57AM 34.8994 119.5133 157° South  Level Estimated
04:58AM 34.8152 119.5567 157° South  Level Estimated
04:59AM 34.7310 119.6000 157° South  Level Estimated
05:00AM 34.6468 119.6432 157° South  Level Estimated
05:01AM 34.5626 119.6863 157° South  Level Estimated
05:02AM 34.4784 119.7293 157° South  Level Estimated
05:03AM 34.3942 119.7722 157° South  Level Estimated
05:04AM 34.3099 119.8151 157° South  Level Estimated
05:05AM 34.2256 119.8578 157° South  Level Estimated
05:06AM 34.1413 119.9005 157° South  Level Estimated
05:07AM 34.0570 119.9431 157° South  Level Estimated
05:08AM 33.9727 119.9856 157° South  Level Estimated
05:09AM 33.8884 120.0280 157° South  Level Estimated
05:10AM 33.8040 120.0704 157° South  Level Estimated
05:10AM 31.8330 120.0580 157° South 340 391 14,800  Level FlightAware
05:11AM 33.7197 120.1126 157° South  Level Estimated
05:11AM 31.7590 120.1440 135° Southeast 365 420 14,800  Level FlightAware
05:11AM 31.7100 120.1980 137° Southeast 329 379 14,800  Level FlightAware
05:12AM 31.6610 120.2510 137° Southeast 312 359 14,800  Level FlightAware
05:13AM 31.6170 120.2990 137° Southeast 316 364 14,800  Level FlightAware
05:13AM 31.5790 120.3640 124° Southeast 336 387 14,800 -240 Level FlightAware
05:14AM 31.5580 120.4330 110° East 334 384 14,500 -900 Descending FlightAware
05:15AM 31.5380 120.5010 109° East 330 380 13,600 -1,320 Descending FlightAware
05:15AM 31.5150 120.5770 110° East 323 372 12,700 -1,200 Descending FlightAware
05:16AM 31.4950 120.6420 110° East 318 366 11,900 -720 Descending FlightAware
05:17AM 31.4750 120.7080 110° East 315 362 11,800 -120 Descending FlightAware
05:18AM 31.4520 120.7800 111° Southeast 316 364 11,800  Level FlightAware
05:18AM 31.4320 120.8450 110° East 314 361 11,800 -300 Level FlightAware
05:19AM 31.4100 120.9180 109° East 313 360 11,400 -780 Descending FlightAware
05:20AM 31.3900 120.9810 110° East 307 353 10,700 -960 Descending FlightAware
05:20AM 31.3700 121.0490 109° East 289 333 10,100 -960 Descending FlightAware
05:21AM 31.3590 121.0870 109° East 287 330 9,600 -1,200 Descending FlightAware
05:21AM 31.3460 121.1270 111° Southeast 287 330 9,000 -1,200 Descending FlightAware
05:22AM 31.3340 121.1670 109° East 287 330 8,500 -900 Descending FlightAware
05:22AM 31.3170 121.2060 117° Southeast 268 308 8,200 -720 Descending FlightAware
05:22AM 31.3010 121.2190 145° Southeast 264 304 8,000 -840 Descending FlightAware
05:23AM 31.2850 121.2230 168° South 245 282 7,800 -600 Descending FlightAware
05:23AM 31.2550 121.2250 177° South 242 278 7,600 -600 Descending FlightAware
05:24AM 31.2230 121.2260 178° South 228 262 7,300 -780 Descending FlightAware
05:24AM 31.1970 121.2270 178° South 213 245 6,900 -480 Descending FlightAware
05:24AM 31.1740 121.2290 176° South 213 245 6,900 -780 Level FlightAware
05:25AM 31.1600 121.2290 180° South 213 245 6,400 -1,200 Descending FlightAware
05:25AM 31.1340 121.2300 178° South 207 238 6,100 -720 Descending FlightAware
05:26AM 31.1110 121.2310 178° South 194 223 5,800 -900 Descending FlightAware
05:26AM 31.0860 121.2310 180° South 180 207 5,300 -600 Descending FlightAware
05:27AM 31.0600 121.2310 180° South 180 207 5,200 -480 Descending FlightAware
05:28AM 30.9620 121.2310 33° Northeast 4,300 -600 Descending FlightAware
05:29AM 31.1979 121.3363 33° Northeast  Level Estimated
05:29AM 30.9510 121.2440 135° Southeast 166 191 4,000  Level FlightAware
05:29AM 30.9470 121.2670 101° East 164 189 3,700 -540 Descending FlightAware
05:30AM 30.9440 121.2970 97° East 167 192 3,500 -480 Descending FlightAware
05:32AM 31.0995 121.3211 North  Level Estimated
05:32AM 31.0260 121.3460 North 2,100  Level FlightAware
05:33AM 31.0580 121.3440 357° North 147 169 2,100  Level FlightAware
05:34AM 31.0830 121.3420 356° North 147 169 2,100  Level FlightAware
05:36AM 31.1979 121.3363 358° North  Level Estimated
05:37AM 31.1979 121.3363 190° South  Level Estimated